sensor_id;sensor_type;location;lat;lon;timestamp;temperature;humidity
11762;DHT22;5938;47.098;15.474;2022-10-15T00:03:24;9.10;99.90
11762;DHT22;5938;47.098;15.474;2022-10-15T00:07:28;9.00;99.90
11762;DHT22;5938;47.098;15.474;2022-10-15T00:11:31;8.90;99.90
11762;DHT22;5938;47.098;15.474;2022-10-15T00:15:35;8.80;99.90
11762;DHT22;5938;47.098;15.474;2022-10-15T00:19:41;8.80;99.90
11762;DHT22;5938;47.098;15.474;2022-10-15T00:23:45;8.80;99.90
11762;DHT22;5938;47.098;15.474;2022-10-15T00:27:48;8.70;99.90
11762;DHT22;5938;47.098;15.474;2022-10-15T00:31:51;8.60;99.90
11762;DHT22;5938;47.098;15.474;2022-10-15T00:36:01;8.60;99.90
11762;DHT22;5938;47.098;15.474;2022-10-15T00:40:06;8.60;99.90
11762;DHT22;5938;47.098;15.474;2022-10-15T00:48:54;8.50;99.90
11762;DHT22;5938;47.098;15.474;2022-10-15T00:53:02;8.50;99.90
11762;DHT22;5938;47.098;15.474;2022-10-15T00:57:07;8.40;99.90
11762;DHT22;5938;47.098;15.474;2022-10-15T01:01:12;8.40;99.90
11762;DHT22;5938;47.098;15.474;2022-10-15T01:05:16;8.40;99.90
11762;DHT22;5938;47.098;15.474;2022-10-15T01:09:21;8.40;99.90
11762;DHT22;5938;47.098;15.474;2022-10-15T01:13:32;8.50;99.90
11762;DHT22;5938;47.098;15.474;2022-10-15T01:17:40;8.50;99.90
11762;DHT22;5938;47.098;15.474;2022-10-15T01:21:48;8.50;99.90
11762;DHT22;5938;47.098;15.474;2022-10-15T01:26:07;8.60;99.90
11762;DHT22;5938;47.098;15.474;2022-10-15T01:30:22;8.60;99.90
11762;DHT22;5938;47.098;15.474;2022-10-15T01:34:30;8.60;99.90
11762;DHT22;5938;47.098;15.474;2022-10-15T01:38:44;8.60;99.90
11762;DHT22;5938;47.098;15.474;2022-10-15T01:42:53;8.60;99.90
11762;DHT22;5938;47.098;15.474;2022-10-15T01:47:03;8.60;99.90
11762;DHT22;5938;47.098;15.474;2022-10-15T01:51:09;8.60;99.90
11762;DHT22;5938;47.098;15.474;2022-10-15T01:55:14;8.60;99.90
11762;DHT22;5938;47.098;15.474;2022-10-15T01:59:21;8.60;99.90
11762;DHT22;5938;47.098;15.474;2022-10-15T02:03:27;8.60;99.90
11762;DHT22;5938;47.098;15.474;2022-10-15T02:07:46;8.60;99.90
11762;DHT22;5938;47.098;15.474;2022-10-15T02:12:02;8.60;99.90
11762;DHT22;5938;47.098;15.474;2022-10-15T02:16:12;8.60;99.90
11762;DHT22;5938;47.098;15.474;2022-10-15T02:20:21;8.70;99.90
11762;DHT22;5938;47.098;15.474;2022-10-15T02:24:27;8.70;99.90
11762;DHT22;5938;47.098;15.474;2022-10-15T02:28:36;8.70;99.90
11762;DHT22;5938;47.098;15.474;2022-10-15T02:32:40;8.80;99.90
11762;DHT22;5938;47.098;15.474;2022-10-15T02:36:46;8.80;99.90
11762;DHT22;5938;47.098;15.474;2022-10-15T02:40:51;8.80;99.90
11762;DHT22;5938;47.098;15.474;2022-10-15T02:44:57;8.90;99.90
11762;DHT22;5938;47.098;15.474;2022-10-15T02:49:00;8.80;99.90
11762;DHT22;5938;47.098;15.474;2022-10-15T02:53:05;8.90;99.90
11762;DHT22;5938;47.098;15.474;2022-10-15T02:57:08;9.00;99.90
11762;DHT22;5938;47.098;15.474;2022-10-15T03:01:12;9.00;99.90
11762;DHT22;5938;47.098;15.474;2022-10-15T03:05:15;9.10;99.90
11762;DHT22;5938;47.098;15.474;2022-10-15T03:09:21;9.10;99.90
11762;DHT22;5938;47.098;15.474;2022-10-15T03:13:24;9.10;99.90
11762;DHT22;5938;47.098;15.474;2022-10-15T03:17:27;9.10;99.90
11762;DHT22;5938;47.098;15.474;2022-10-15T03:21:30;9.20;99.90
11762;DHT22;5938;47.098;15.474;2022-10-15T03:25:35;9.20;99.90
11762;DHT22;5938;47.098;15.474;2022-10-15T03:29:38;9.10;99.90
11762;DHT22;5938;47.098;15.474;2022-10-15T03:33:42;9.20;99.90
11762;DHT22;5938;47.098;15.474;2022-10-15T03:37:45;9.10;99.90
11762;DHT22;5938;47.098;15.474;2022-10-15T03:41:51;9.10;99.90
11762;DHT22;5938;47.098;15.474;2022-10-15T03:45:54;9.10;99.90
11762;DHT22;5938;47.098;15.474;2022-10-15T03:49:58;9.00;99.90
11762;DHT22;5938;47.098;15.474;2022-10-15T03:54:01;8.90;99.90
11762;DHT22;5938;47.098;15.474;2022-10-15T03:58:06;9.00;99.90
11762;DHT22;5938;47.098;15.474;2022-10-15T04:02:10;9.00;99.90
11762;DHT22;5938;47.098;15.474;2022-10-15T04:06:13;9.00;99.90
11762;DHT22;5938;47.098;15.474;2022-10-15T04:10:16;9.00;99.90
11762;DHT22;5938;47.098;15.474;2022-10-15T04:14:21;9.10;99.90
11762;DHT22;5938;47.098;15.474;2022-10-15T04:18:25;9.10;99.90
11762;DHT22;5938;47.098;15.474;2022-10-15T04:22:28;9.10;99.90
11762;DHT22;5938;47.098;15.474;2022-10-15T04:26:32;9.20;99.90
11762;DHT22;5938;47.098;15.474;2022-10-15T04:30:36;9.20;99.90
11762;DHT22;5938;47.098;15.474;2022-10-15T04:34:40;9.20;99.90
11762;DHT22;5938;47.098;15.474;2022-10-15T04:38:43;9.20;99.90
11762;DHT22;5938;47.098;15.474;2022-10-15T04:42:46;9.30;99.90
11762;DHT22;5938;47.098;15.474;2022-10-15T04:46:51;9.30;99.90
11762;DHT22;5938;47.098;15.474;2022-10-15T04:50:54;9.30;99.90
11762;DHT22;5938;47.098;15.474;2022-10-15T04:54:59;9.30;99.90
11762;DHT22;5938;47.098;15.474;2022-10-15T04:59:06;9.40;99.90
11762;DHT22;5938;47.098;15.474;2022-10-15T05:03:11;9.40;99.90
11762;DHT22;5938;47.098;15.474;2022-10-15T05:07:14;9.50;99.90
11762;DHT22;5938;47.098;15.474;2022-10-15T05:11:19;9.40;99.90
11762;DHT22;5938;47.098;15.474;2022-10-15T05:15:24;9.40;99.90
11762;DHT22;5938;47.098;15.474;2022-10-15T05:19:29;9.50;99.90
11762;DHT22;5938;47.098;15.474;2022-10-15T05:23:33;9.50;99.90
11762;DHT22;5938;47.098;15.474;2022-10-15T05:27:36;9.50;99.90
11762;DHT22;5938;47.098;15.474;2022-10-15T05:31:40;9.70;99.90
11762;DHT22;5938;47.098;15.474;2022-10-15T05:35:44;9.70;99.90
11762;DHT22;5938;47.098;15.474;2022-10-15T05:39:48;9.70;99.90
11762;DHT22;5938;47.098;15.474;2022-10-15T05:43:54;9.70;99.90
11762;DHT22;5938;47.098;15.474;2022-10-15T05:47:58;9.80;99.90
11762;DHT22;5938;47.098;15.474;2022-10-15T05:52:03;9.90;99.90
11762;DHT22;5938;47.098;15.474;2022-10-15T05:56:07;9.90;99.90
11762;DHT22;5938;47.098;15.474;2022-10-15T06:00:12;9.90;99.90
11762;DHT22;5938;47.098;15.474;2022-10-15T06:04:15;10.00;99.90
11762;DHT22;5938;47.098;15.474;2022-10-15T06:08:32;10.00;99.90
11762;DHT22;5938;47.098;15.474;2022-10-15T06:12:36;10.10;99.90
11762;DHT22;5938;47.098;15.474;2022-10-15T06:16:40;10.10;99.90
11762;DHT22;5938;47.098;15.474;2022-10-15T06:20:43;10.20;99.90
11762;DHT22;5938;47.098;15.474;2022-10-15T06:24:48;10.30;99.90
11762;DHT22;5938;47.098;15.474;2022-10-15T06:28:51;10.40;99.90
11762;DHT22;5938;47.098;15.474;2022-10-15T06:32:56;10.40;99.90
11762;DHT22;5938;47.098;15.474;2022-10-15T06:37:00;10.50;99.90
11762;DHT22;5938;47.098;15.474;2022-10-15T06:41:05;10.50;99.90
11762;DHT22;5938;47.098;15.474;2022-10-15T06:45:10;10.60;99.90
11762;DHT22;5938;47.098;15.474;2022-10-15T06:49:16;10.70;99.90
11762;DHT22;5938;47.098;15.474;2022-10-15T06:53:20;10.70;99.90
11762;DHT22;5938;47.098;15.474;2022-10-15T06:57:30;10.90;99.90
11762;DHT22;5938;47.098;15.474;2022-10-15T07:01:33;11.10;99.90
11762;DHT22;5938;47.098;15.474;2022-10-15T07:05:42;11.30;99.90
11762;DHT22;5938;47.098;15.474;2022-10-15T07:09:45;11.30;99.90
11762;DHT22;5938;47.098;15.474;2022-10-15T07:13:51;11.30;99.90
11762;DHT22;5938;47.098;15.474;2022-10-15T07:17:55;11.40;99.90
11762;DHT22;5938;47.098;15.474;2022-10-15T07:22:02;11.50;99.90
11762;DHT22;5938;47.098;15.474;2022-10-15T07:26:05;11.60;99.90
11762;DHT22;5938;47.098;15.474;2022-10-15T07:30:10;11.60;99.90
11762;DHT22;5938;47.098;15.474;2022-10-15T07:34:14;11.50;99.90
11762;DHT22;5938;47.098;15.474;2022-10-15T07:38:17;11.50;99.90
11762;DHT22;5938;47.098;15.474;2022-10-15T07:42:20;11.60;99.90
11762;DHT22;5938;47.098;15.474;2022-10-15T07:46:25;11.70;99.90
11762;DHT22;5938;47.098;15.474;2022-10-15T07:50:29;11.80;99.90
11762;DHT22;5938;47.098;15.474;2022-10-15T07:54:38;11.90;99.90
11762;DHT22;5938;47.098;15.474;2022-10-15T07:58:42;12.00;99.90
11762;DHT22;5938;47.098;15.474;2022-10-15T08:02:57;12.00;99.90
11762;DHT22;5938;47.098;15.474;2022-10-15T08:07:00;12.10;99.90
11762;DHT22;5938;47.098;15.474;2022-10-15T08:11:10;12.20;99.90
11762;DHT22;5938;47.098;15.474;2022-10-15T08:15:14;12.20;99.90
11762;DHT22;5938;47.098;15.474;2022-10-15T08:19:19;12.30;99.90
11762;DHT22;5938;47.098;15.474;2022-10-15T08:23:23;12.50;99.90
11762;DHT22;5938;47.098;15.474;2022-10-15T08:27:26;12.60;99.90
11762;DHT22;5938;47.098;15.474;2022-10-15T08:31:30;12.80;99.90
11762;DHT22;5938;47.098;15.474;2022-10-15T08:35:35;12.80;99.90
11762;DHT22;5938;47.098;15.474;2022-10-15T08:39:40;12.80;99.90
11762;DHT22;5938;47.098;15.474;2022-10-15T08:43:45;12.90;99.90
11762;DHT22;5938;47.098;15.474;2022-10-15T08:47:51;13.00;99.90
11762;DHT22;5938;47.098;15.474;2022-10-15T08:52:02;12.90;99.90
11762;DHT22;5938;47.098;15.474;2022-10-15T08:56:14;12.90;99.90
11762;DHT22;5938;47.098;15.474;2022-10-15T09:00:20;12.90;99.90
11762;DHT22;5938;47.098;15.474;2022-10-15T09:04:29;12.90;99.90
11762;DHT22;5938;47.098;15.474;2022-10-15T09:08:43;13.00;99.90
11762;DHT22;5938;47.098;15.474;2022-10-15T09:12:54;13.10;99.90
11762;DHT22;5938;47.098;15.474;2022-10-15T09:17:04;13.20;99.90
11762;DHT22;5938;47.098;15.474;2022-10-15T09:21:12;13.30;99.90
11762;DHT22;5938;47.098;15.474;2022-10-15T09:25:24;13.50;99.90
11762;DHT22;5938;47.098;15.474;2022-10-15T09:29:49;13.80;99.90
11762;DHT22;5938;47.098;15.474;2022-10-15T09:33:56;14.00;99.90
11762;DHT22;5938;47.098;15.474;2022-10-15T09:38:12;14.10;99.90
11762;DHT22;5938;47.098;15.474;2022-10-15T09:42:27;14.10;99.90
11762;DHT22;5938;47.098;15.474;2022-10-15T09:46:32;14.00;99.90
11762;DHT22;5938;47.098;15.474;2022-10-15T09:50:42;14.10;99.90
11762;DHT22;5938;47.098;15.474;2022-10-15T09:54:53;14.10;99.90
11762;DHT22;5938;47.098;15.474;2022-10-15T09:59:00;14.20;99.90
11762;DHT22;5938;47.098;15.474;2022-10-15T10:03:14;14.60;99.90
11762;DHT22;5938;47.098;15.474;2022-10-15T10:07:29;14.80;99.90
11762;DHT22;5938;47.098;15.474;2022-10-15T10:11:46;15.20;99.90
11762;DHT22;5938;47.098;15.474;2022-10-15T10:15:53;15.40;99.90
11762;DHT22;5938;47.098;15.474;2022-10-15T10:20:15;15.60;99.90
11762;DHT22;5938;47.098;15.474;2022-10-15T10:24:25;15.50;99.90
11762;DHT22;5938;47.098;15.474;2022-10-15T10:28:33;15.90;99.90
11762;DHT22;5938;47.098;15.474;2022-10-15T10:32:46;16.00;99.90
11762;DHT22;5938;47.098;15.474;2022-10-15T10:36:50;16.10;99.90
11762;DHT22;5938;47.098;15.474;2022-10-15T10:40:56;16.30;99.90
11762;DHT22;5938;47.098;15.474;2022-10-15T10:45:19;16.20;99.90
11762;DHT22;5938;47.098;15.474;2022-10-15T10:49:31;16.60;99.90
11762;DHT22;5938;47.098;15.474;2022-10-15T10:53:43;17.00;99.90
11762;DHT22;5938;47.098;15.474;2022-10-15T10:57:50;17.50;99.90
11762;DHT22;5938;47.098;15.474;2022-10-15T11:01:55;17.70;99.90
11762;DHT22;5938;47.098;15.474;2022-10-15T11:06:13;17.70;99.90
11762;DHT22;5938;47.098;15.474;2022-10-15T11:10:23;17.60;99.90
11762;DHT22;5938;47.098;15.474;2022-10-15T11:14:32;17.50;99.90
11762;DHT22;5938;47.098;15.474;2022-10-15T11:18:52;17.80;99.90
11762;DHT22;5938;47.098;15.474;2022-10-15T11:23:07;17.80;99.90
11762;DHT22;5938;47.098;15.474;2022-10-15T11:27:23;17.50;99.90
11762;DHT22;5938;47.098;15.474;2022-10-15T11:31:38;17.80;99.90
11762;DHT22;5938;47.098;15.474;2022-10-15T11:36:13;17.70;99.90
11762;DHT22;5938;47.098;15.474;2022-10-15T11:40:31;17.40;99.90
11762;DHT22;5938;47.098;15.474;2022-10-15T11:44:54;17.10;99.90
11762;DHT22;5938;47.098;15.474;2022-10-15T11:49:17;16.70;99.90
11762;DHT22;5938;47.098;15.474;2022-10-15T11:57:59;16.60;99.90
11762;DHT22;5938;47.098;15.474;2022-10-15T12:02:10;16.50;99.90
11762;DHT22;5938;47.098;15.474;2022-10-15T12:06:18;16.40;99.90
11762;DHT22;5938;47.098;15.474;2022-10-15T12:10:35;16.40;99.90
11762;DHT22;5938;47.098;15.474;2022-10-15T12:14:49;16.70;99.90
11762;DHT22;5938;47.098;15.474;2022-10-15T12:19:02;16.70;99.90
11762;DHT22;5938;47.098;15.474;2022-10-15T12:23:23;16.60;99.90
11762;DHT22;5938;47.098;15.474;2022-10-15T12:27:29;16.40;99.90
11762;DHT22;5938;47.098;15.474;2022-10-15T12:31:57;16.50;99.90
11762;DHT22;5938;47.098;15.474;2022-10-15T12:36:04;16.90;99.90
11762;DHT22;5938;47.098;15.474;2022-10-15T12:40:27;17.00;99.90
11762;DHT22;5938;47.098;15.474;2022-10-15T12:44:33;17.10;99.90
11762;DHT22;5938;47.098;15.474;2022-10-15T12:48:40;17.10;99.90
11762;DHT22;5938;47.098;15.474;2022-10-15T12:52:53;17.10;99.90
11762;DHT22;5938;47.098;15.474;2022-10-15T12:56:57;17.30;99.90
11762;DHT22;5938;47.098;15.474;2022-10-15T13:01:04;17.10;99.90
11762;DHT22;5938;47.098;15.474;2022-10-15T13:05:23;17.20;99.90
11762;DHT22;5938;47.098;15.474;2022-10-15T13:09:29;17.40;99.90
11762;DHT22;5938;47.098;15.474;2022-10-15T13:13:33;17.50;99.90
11762;DHT22;5938;47.098;15.474;2022-10-15T13:17:38;17.40;99.90
11762;DHT22;5938;47.098;15.474;2022-10-15T13:21:48;17.40;99.90
11762;DHT22;5938;47.098;15.474;2022-10-15T13:30:13;17.50;99.90
11762;DHT22;5938;47.098;15.474;2022-10-15T13:34:26;17.50;99.90
11762;DHT22;5938;47.098;15.474;2022-10-15T13:38:32;17.70;99.90
11762;DHT22;5938;47.098;15.474;2022-10-15T13:42:37;17.60;99.90
11762;DHT22;5938;47.098;15.474;2022-10-15T13:46:40;17.70;99.90
11762;DHT22;5938;47.098;15.474;2022-10-15T13:50:45;17.50;99.90
11762;DHT22;5938;47.098;15.474;2022-10-15T13:54:51;17.60;99.90
11762;DHT22;5938;47.098;15.474;2022-10-15T13:58:55;17.60;99.90
11762;DHT22;5938;47.098;15.474;2022-10-15T14:03:18;17.70;99.90
11762;DHT22;5938;47.098;15.474;2022-10-15T14:07:24;17.50;99.90
11762;DHT22;5938;47.098;15.474;2022-10-15T14:11:35;17.40;99.90
11762;DHT22;5938;47.098;15.474;2022-10-15T14:15:52;17.00;99.90
11762;DHT22;5938;47.098;15.474;2022-10-15T14:20:03;16.80;99.90
11762;DHT22;5938;47.098;15.474;2022-10-15T14:24:31;16.90;99.90
11762;DHT22;5938;47.098;15.474;2022-10-15T14:28:39;17.00;99.90
11762;DHT22;5938;47.098;15.474;2022-10-15T14:32:45;17.00;99.90
11762;DHT22;5938;47.098;15.474;2022-10-15T14:36:49;16.90;99.90
11762;DHT22;5938;47.098;15.474;2022-10-15T14:40:59;16.70;99.90
11762;DHT22;5938;47.098;15.474;2022-10-15T14:45:34;16.50;99.90
11762;DHT22;5938;47.098;15.474;2022-10-15T14:49:56;16.40;99.90
11762;DHT22;5938;47.098;15.474;2022-10-15T14:54:02;16.40;99.90
11762;DHT22;5938;47.098;15.474;2022-10-15T14:58:07;16.30;99.90
11762;DHT22;5938;47.098;15.474;2022-10-15T15:02:14;16.10;99.90
11762;DHT22;5938;47.098;15.474;2022-10-15T15:06:18;15.90;99.90
11762;DHT22;5938;47.098;15.474;2022-10-15T15:10:23;15.50;99.90
11762;DHT22;5938;47.098;15.474;2022-10-15T15:14:27;15.30;99.90
11762;DHT22;5938;47.098;15.474;2022-10-15T15:18:32;15.10;99.90
11762;DHT22;5938;47.098;15.474;2022-10-15T15:22:36;14.90;99.90
11762;DHT22;5938;47.098;15.474;2022-10-15T15:26:39;14.60;99.90
11762;DHT22;5938;47.098;15.474;2022-10-15T15:30:44;14.40;99.90
11762;DHT22;5938;47.098;15.474;2022-10-15T15:34:51;14.20;99.90
11762;DHT22;5938;47.098;15.474;2022-10-15T15:38:54;14.10;99.90
11762;DHT22;5938;47.098;15.474;2022-10-15T15:43:01;13.90;99.90
11762;DHT22;5938;47.098;15.474;2022-10-15T15:47:04;13.80;99.90
11762;DHT22;5938;47.098;15.474;2022-10-15T15:51:18;13.60;99.90
11762;DHT22;5938;47.098;15.474;2022-10-15T15:55:23;13.50;99.90
11762;DHT22;5938;47.098;15.474;2022-10-15T15:59:26;13.50;99.90
11762;DHT22;5938;47.098;15.474;2022-10-15T16:03:29;13.40;99.90
11762;DHT22;5938;47.098;15.474;2022-10-15T16:07:34;13.20;99.90
11762;DHT22;5938;47.098;15.474;2022-10-15T16:11:38;13.10;99.90
11762;DHT22;5938;47.098;15.474;2022-10-15T16:15:41;13.10;99.90
11762;DHT22;5938;47.098;15.474;2022-10-15T16:19:45;12.90;99.90
11762;DHT22;5938;47.098;15.474;2022-10-15T16:23:50;12.70;99.90
11762;DHT22;5938;47.098;15.474;2022-10-15T16:27:54;12.70;99.90
11762;DHT22;5938;47.098;15.474;2022-10-15T16:31:58;12.50;99.90
11762;DHT22;5938;47.098;15.474;2022-10-15T16:36:01;12.30;99.90
11762;DHT22;5938;47.098;15.474;2022-10-15T16:40:07;12.10;99.90
11762;DHT22;5938;47.098;15.474;2022-10-15T16:44:11;12.00;99.90
11762;DHT22;5938;47.098;15.474;2022-10-15T16:48:14;11.90;99.90
11762;DHT22;5938;47.098;15.474;2022-10-15T16:52:17;11.80;99.90
11762;DHT22;5938;47.098;15.474;2022-10-15T16:56:25;11.70;99.90
11762;DHT22;5938;47.098;15.474;2022-10-15T17:00:28;11.60;99.90
11762;DHT22;5938;47.098;15.474;2022-10-15T17:04:32;11.50;99.90
11762;DHT22;5938;47.098;15.474;2022-10-15T17:08:38;11.40;99.90
11762;DHT22;5938;47.098;15.474;2022-10-15T17:12:43;11.30;99.90
11762;DHT22;5938;47.098;15.474;2022-10-15T17:16:49;11.20;99.90
11762;DHT22;5938;47.098;15.474;2022-10-15T17:20:53;11.10;99.90
11762;DHT22;5938;47.098;15.474;2022-10-15T17:24:57;11.10;99.90
11762;DHT22;5938;47.098;15.474;2022-10-15T17:29:04;11.00;99.90
11762;DHT22;5938;47.098;15.474;2022-10-15T17:33:08;10.90;99.90
11762;DHT22;5938;47.098;15.474;2022-10-15T17:37:12;10.90;99.90
11762;DHT22;5938;47.098;15.474;2022-10-15T17:41:17;10.80;99.90
11762;DHT22;5938;47.098;15.474;2022-10-15T17:45:23;10.70;99.90
11762;DHT22;5938;47.098;15.474;2022-10-15T17:49:28;10.70;99.90
11762;DHT22;5938;47.098;15.474;2022-10-15T17:53:34;10.70;99.90
11762;DHT22;5938;47.098;15.474;2022-10-15T17:57:48;10.70;99.90
11762;DHT22;5938;47.098;15.474;2022-10-15T18:01:56;10.70;99.90
11762;DHT22;5938;47.098;15.474;2022-10-15T18:06:08;10.70;99.90
11762;DHT22;5938;47.098;15.474;2022-10-15T18:10:20;10.60;99.90
11762;DHT22;5938;47.098;15.474;2022-10-15T18:14:26;10.60;99.90
11762;DHT22;5938;47.098;15.474;2022-10-15T18:18:41;10.60;99.90
11762;DHT22;5938;47.098;15.474;2022-10-15T18:22:58;10.60;99.90
11762;DHT22;5938;47.098;15.474;2022-10-15T18:27:09;10.50;99.90
11762;DHT22;5938;47.098;15.474;2022-10-15T18:31:16;10.50;99.90
11762;DHT22;5938;47.098;15.474;2022-10-15T18:35:32;10.50;99.90
11762;DHT22;5938;47.098;15.474;2022-10-15T18:39:44;10.50;99.90
11762;DHT22;5938;47.098;15.474;2022-10-15T18:43:55;10.50;99.90
11762;DHT22;5938;47.098;15.474;2022-10-15T18:48:08;10.50;99.90
11762;DHT22;5938;47.098;15.474;2022-10-15T18:52:24;10.40;99.90
11762;DHT22;5938;47.098;15.474;2022-10-15T18:56:43;10.40;99.90
11762;DHT22;5938;47.098;15.474;2022-10-15T19:00:52;10.30;99.90
11762;DHT22;5938;47.098;15.474;2022-10-15T19:05:04;10.20;99.90
11762;DHT22;5938;47.098;15.474;2022-10-15T19:09:17;10.30;99.90
11762;DHT22;5938;47.098;15.474;2022-10-15T19:13:28;10.30;99.90
11762;DHT22;5938;47.098;15.474;2022-10-15T19:17:35;10.40;99.90
11762;DHT22;5938;47.098;15.474;2022-10-15T19:21:41;10.50;99.90
11762;DHT22;5938;47.098;15.474;2022-10-15T19:25:55;10.50;99.90
11762;DHT22;5938;47.098;15.474;2022-10-15T19:30:21;10.50;99.90
11762;DHT22;5938;47.098;15.474;2022-10-15T19:34:32;10.60;99.90
11762;DHT22;5938;47.098;15.474;2022-10-15T19:39:00;10.60;99.90
11762;DHT22;5938;47.098;15.474;2022-10-15T19:43:08;10.60;99.90
11762;DHT22;5938;47.098;15.474;2022-10-15T19:47:12;10.60;99.90
11762;DHT22;5938;47.098;15.474;2022-10-15T19:51:46;10.60;99.90
11762;DHT22;5938;47.098;15.474;2022-10-15T19:55:55;10.50;99.90
11762;DHT22;5938;47.098;15.474;2022-10-15T20:00:01;10.50;99.90
11762;DHT22;5938;47.098;15.474;2022-10-15T20:04:06;10.50;99.90
11762;DHT22;5938;47.098;15.474;2022-10-15T20:08:10;10.50;99.90
11762;DHT22;5938;47.098;15.474;2022-10-15T20:12:14;10.50;99.90
11762;DHT22;5938;47.098;15.474;2022-10-15T20:16:19;10.40;99.90
11762;DHT22;5938;47.098;15.474;2022-10-15T20:20:24;10.40;99.90
11762;DHT22;5938;47.098;15.474;2022-10-15T20:24:28;10.30;99.90
11762;DHT22;5938;47.098;15.474;2022-10-15T20:28:34;10.30;99.90
11762;DHT22;5938;47.098;15.474;2022-10-15T20:32:39;10.20;99.90
11762;DHT22;5938;47.098;15.474;2022-10-15T20:36:44;10.10;99.90
11762;DHT22;5938;47.098;15.474;2022-10-15T20:40:47;10.00;99.90
11762;DHT22;5938;47.098;15.474;2022-10-15T20:44:51;10.00;99.90
11762;DHT22;5938;47.098;15.474;2022-10-15T20:48:58;10.00;99.90
11762;DHT22;5938;47.098;15.474;2022-10-15T20:53:09;9.90;99.90
11762;DHT22;5938;47.098;15.474;2022-10-15T20:57:13;9.90;99.90
11762;DHT22;5938;47.098;15.474;2022-10-15T21:01:16;9.90;99.90
11762;DHT22;5938;47.098;15.474;2022-10-15T21:05:21;10.00;99.90
11762;DHT22;5938;47.098;15.474;2022-10-15T21:09:24;10.00;99.90
11762;DHT22;5938;47.098;15.474;2022-10-15T21:13:28;9.90;99.90
11762;DHT22;5938;47.098;15.474;2022-10-15T21:17:31;9.80;99.90
11762;DHT22;5938;47.098;15.474;2022-10-15T21:21:36;9.80;99.90
11762;DHT22;5938;47.098;15.474;2022-10-15T21:25:40;9.80;99.90
11762;DHT22;5938;47.098;15.474;2022-10-15T21:29:44;9.90;99.90
11762;DHT22;5938;47.098;15.474;2022-10-15T21:33:47;10.00;99.90
11762;DHT22;5938;47.098;15.474;2022-10-15T21:37:52;10.20;99.90
11762;DHT22;5938;47.098;15.474;2022-10-15T21:41:55;10.20;99.90
11762;DHT22;5938;47.098;15.474;2022-10-15T21:46:03;10.20;99.90
11762;DHT22;5938;47.098;15.474;2022-10-15T21:50:09;10.30;99.90
11762;DHT22;5938;47.098;15.474;2022-10-15T21:54:14;10.20;99.90
11762;DHT22;5938;47.098;15.474;2022-10-15T21:58:17;10.20;99.90
11762;DHT22;5938;47.098;15.474;2022-10-15T22:02:20;10.20;99.90
11762;DHT22;5938;47.098;15.474;2022-10-15T22:06:23;10.20;99.90
11762;DHT22;5938;47.098;15.474;2022-10-15T22:10:32;10.10;99.90
11762;DHT22;5938;47.098;15.474;2022-10-15T22:14:35;10.00;99.90
11762;DHT22;5938;47.098;15.474;2022-10-15T22:18:39;9.90;99.90
11762;DHT22;5938;47.098;15.474;2022-10-15T22:22:42;9.80;99.90
11762;DHT22;5938;47.098;15.474;2022-10-15T22:26:49;9.70;99.90
11762;DHT22;5938;47.098;15.474;2022-10-15T22:31:02;9.60;99.90
11762;DHT22;5938;47.098;15.474;2022-10-15T22:35:06;9.50;99.90
11762;DHT22;5938;47.098;15.474;2022-10-15T22:39:12;9.40;99.90
11762;DHT22;5938;47.098;15.474;2022-10-15T22:43:17;9.30;99.90
11762;DHT22;5938;47.098;15.474;2022-10-15T22:47:23;9.30;99.90
11762;DHT22;5938;47.098;15.474;2022-10-15T22:51:26;9.20;99.90
11762;DHT22;5938;47.098;15.474;2022-10-15T22:55:30;9.20;99.90
11762;DHT22;5938;47.098;15.474;2022-10-15T22:59:35;9.20;99.90
11762;DHT22;5938;47.098;15.474;2022-10-15T23:03:39;9.10;99.90
11762;DHT22;5938;47.098;15.474;2022-10-15T23:07:42;9.10;99.90
11762;DHT22;5938;47.098;15.474;2022-10-15T23:11:46;9.10;99.90
11762;DHT22;5938;47.098;15.474;2022-10-15T23:15:51;9.10;99.90
11762;DHT22;5938;47.098;15.474;2022-10-15T23:19:54;9.00;99.90
11762;DHT22;5938;47.098;15.474;2022-10-15T23:23:58;9.00;99.90
11762;DHT22;5938;47.098;15.474;2022-10-15T23:28:01;9.10;99.90
11762;DHT22;5938;47.098;15.474;2022-10-15T23:32:07;8.90;99.90
11762;DHT22;5938;47.098;15.474;2022-10-15T23:36:11;8.80;99.90
11762;DHT22;5938;47.098;15.474;2022-10-15T23:40:15;8.80;99.90
11762;DHT22;5938;47.098;15.474;2022-10-15T23:44:19;8.70;99.90
11762;DHT22;5938;47.098;15.474;2022-10-15T23:48:24;8.70;99.90
11762;DHT22;5938;47.098;15.474;2022-10-15T23:52:27;8.60;99.90
11762;DHT22;5938;47.098;15.474;2022-10-15T23:56:31;8.60;99.90
